Wednesday, November 22, 2017, 4:11 AM EST
Back to Local

K12N, Aeroflex-andover Airport

Location: Newton, NJ, United States Lat: 41.017
Local Time: 4:11 AM EST ( 9:11 GMT) Lon: -74.733
Time Zone: US/Eastern Elev: 583 ft

Show me the last for .
Show Coded

Time T Td Feel RH Dir Speed Gust Alt SLP Vis Weather Sky Remarks
2017-11-22 03:54 37 35 - 92 - Calm - 29.93 29.94 0 None
2017-11-22 02:54 36 34 - 92 - Calm - 29.95 29.96 0 None
2017-11-22 01:54 34 33 - 96 - Calm - 29.96 29.97 0 None
2017-11-22 00:54 34 32 - 92 - Calm - 29.98 29.99 0 6-hr Min Temp (1am): 33.1°F
6-hr Max Temp (1am): 39.9°F
2017-11-21 23:54 34 32 - 92 - Calm - 30.00 30.01 0 24-hr Min Temp (12am): 27.0°F
24-hr Max Temp (12am): 57.0°F
2017-11-21 22:54 33 31 - 91 - Calm - 30.01 30.03 0 None
2017-11-21 20:54 34 31 - 88 - Calm - 30.02 30.05 0 None
2017-11-21 19:54 36 32 - 85 - Calm - 30.03 30.06 0 None
2017-11-21 18:54 40 31 - 69 - Calm - 30.02 30.05 0 6-hr Min Temp (7pm): 39.9°F
6-hr Max Temp (7pm): 57.0°F
2017-11-21 17:54 43 31 - 62 - Calm - 30.01 30.03 0 None
2017-11-21 16:54 50 30 48 45 180° 5 - 30.00 30.02 0 None
2017-11-21 15:54 54 29 - 38 200° 5 - 29.99 30.01 0 None
2017-11-21 14:54 56 29 - 35 Variable 6 - 29.98 29.99 0 None
2017-11-21 13:54 55 28 - 35 210° 12 17 30.00 30.02 0 None
2017-11-21 12:54 54 29 - 38 220° 9 - 30.03 30.04 0 6-hr Min Temp (1pm): 27.0°F
6-hr Max Temp (1pm): 54.0°F
2017-11-21 11:54 51 30 - 44 220° 8 21 30.05 30.06 0 None
2017-11-21 10:54 48 29 41 47 200° 9 21 30.07 30.09 0 None
2017-11-21 09:54 46 30 39 53 220° 12 18 30.09 30.11 0 None
2017-11-21 08:54 42 30 39 62 220° 5 - 30.08 30.10 0 None
2017-11-21 07:54 29 26 25 88 200° 3 - 30.09 30.12 0 None
2017-11-21 06:54 29 24 - 81 - Calm - 30.09 30.12 0 6-hr Min Temp (7am): 27.0°F
6-hr Max Temp (7am): 37.0°F
2017-11-21 05:54 27 24 23 88 210° 3 - 30.09 30.12 0 None
2017-11-21 04:54 29 25 - 84 - Calm - 30.09 30.12 0 None

Support USWX by starting your Amazon purchase here.